sensor_id;sensor_type;location;lat;lon;timestamp;P1;durP1;ratioP1;P2;durP2;ratioP2
7545;SDS011;3814;51.454;12.616;2022-11-22T00:00:52;41.38;;;12.50;;
7545;SDS011;3814;51.454;12.616;2022-11-22T00:03:17;39.75;;;12.00;;
7545;SDS011;3814;51.454;12.616;2022-11-22T00:05:42;40.22;;;12.55;;
7545;SDS011;3814;51.454;12.616;2022-11-22T00:08:08;42.75;;;12.07;;
7545;SDS011;3814;51.454;12.616;2022-11-22T00:10:33;36.00;;;11.25;;
7545;SDS011;3814;51.454;12.616;2022-11-22T00:12:59;40.15;;;11.90;;
7545;SDS011;3814;51.454;12.616;2022-11-22T00:15:24;37.90;;;12.73;;
7545;SDS011;3814;51.454;12.616;2022-11-22T00:17:50;33.78;;;10.50;;
7545;SDS011;3814;51.454;12.616;2022-11-22T00:20:15;36.97;;;10.68;;
7545;SDS011;3814;51.454;12.616;2022-11-22T00:22:41;35.55;;;11.23;;
7545;SDS011;3814;51.454;12.616;2022-11-22T00:25:07;29.98;;;10.85;;
7545;SDS011;3814;51.454;12.616;2022-11-22T00:27:33;35.92;;;11.35;;
7545;SDS011;3814;51.454;12.616;2022-11-22T00:29:58;29.85;;;10.88;;
7545;SDS011;3814;51.454;12.616;2022-11-22T00:32:24;31.55;;;11.05;;
7545;SDS011;3814;51.454;12.616;2022-11-22T00:34:49;35.67;;;10.48;;
7545;SDS011;3814;51.454;12.616;2022-11-22T00:37:14;32.03;;;11.30;;
7545;SDS011;3814;51.454;12.616;2022-11-22T00:39:40;36.22;;;12.02;;
7545;SDS011;3814;51.454;12.616;2022-11-22T00:42:05;34.78;;;11.43;;
7545;SDS011;3814;51.454;12.616;2022-11-22T00:44:30;29.27;;;9.95;;
7545;SDS011;3814;51.454;12.616;2022-11-22T00:46:55;39.03;;;11.90;;
7545;SDS011;3814;51.454;12.616;2022-11-22T00:49:21;35.38;;;11.10;;
7545;SDS011;3814;51.454;12.616;2022-11-22T00:51:46;32.90;;;10.95;;
7545;SDS011;3814;51.454;12.616;2022-11-22T00:54:12;34.22;;;10.80;;
7545;SDS011;3814;51.454;12.616;2022-11-22T00:56:37;30.77;;;10.50;;
7545;SDS011;3814;51.454;12.616;2022-11-22T00:59:02;30.52;;;10.90;;
7545;SDS011;3814;51.454;12.616;2022-11-22T01:01:28;32.78;;;10.75;;
7545;SDS011;3814;51.454;12.616;2022-11-22T01:03:53;36.92;;;11.45;;
7545;SDS011;3814;51.454;12.616;2022-11-22T01:06:18;36.50;;;10.95;;
7545;SDS011;3814;51.454;12.616;2022-11-22T01:08:44;30.67;;;10.57;;
7545;SDS011;3814;51.454;12.616;2022-11-22T01:11:09;35.10;;;11.75;;
7545;SDS011;3814;51.454;12.616;2022-11-22T01:13:35;35.47;;;11.48;;
7545;SDS011;3814;51.454;12.616;2022-11-22T01:16:02;36.78;;;11.27;;
7545;SDS011;3814;51.454;12.616;2022-11-22T01:18:29;31.85;;;10.65;;
7545;SDS011;3814;51.454;12.616;2022-11-22T01:20:55;32.53;;;10.27;;
7545;SDS011;3814;51.454;12.616;2022-11-22T01:23:20;36.50;;;11.38;;
7545;SDS011;3814;51.454;12.616;2022-11-22T01:25:45;38.17;;;11.73;;
7545;SDS011;3814;51.454;12.616;2022-11-22T01:28:11;33.72;;;11.25;;
7545;SDS011;3814;51.454;12.616;2022-11-22T01:30:36;32.88;;;11.60;;
7545;SDS011;3814;51.454;12.616;2022-11-22T01:33:02;34.53;;;10.65;;
7545;SDS011;3814;51.454;12.616;2022-11-22T01:35:27;33.58;;;11.20;;
7545;SDS011;3814;51.454;12.616;2022-11-22T01:37:52;37.20;;;12.10;;
7545;SDS011;3814;51.454;12.616;2022-11-22T01:40:18;34.17;;;10.88;;
7545;SDS011;3814;51.454;12.616;2022-11-22T01:42:51;35.65;;;11.32;;
7545;SDS011;3814;51.454;12.616;2022-11-22T01:47:58;29.83;;;10.48;;
7545;SDS011;3814;51.454;12.616;2022-11-22T01:50:27;32.15;;;10.68;;
7545;SDS011;3814;51.454;12.616;2022-11-22T01:52:54;30.05;;;10.32;;
7545;SDS011;3814;51.454;12.616;2022-11-22T01:55:20;35.13;;;11.10;;
7545;SDS011;3814;51.454;12.616;2022-11-22T01:57:46;34.03;;;10.20;;
7545;SDS011;3814;51.454;12.616;2022-11-22T02:00:13;32.50;;;10.60;;
7545;SDS011;3814;51.454;12.616;2022-11-22T02:02:40;30.95;;;10.77;;
7545;SDS011;3814;51.454;12.616;2022-11-22T02:05:08;31.05;;;10.57;;
7545;SDS011;3814;51.454;12.616;2022-11-22T02:10:08;29.38;;;9.93;;
7545;SDS011;3814;51.454;12.616;2022-11-22T02:12:33;30.85;;;10.23;;
7545;SDS011;3814;51.454;12.616;2022-11-22T02:15:00;30.88;;;10.77;;
7545;SDS011;3814;51.454;12.616;2022-11-22T02:17:25;31.48;;;9.90;;
7545;SDS011;3814;51.454;12.616;2022-11-22T02:19:51;30.13;;;10.52;;
7545;SDS011;3814;51.454;12.616;2022-11-22T02:24:56;31.00;;;10.93;;
7545;SDS011;3814;51.454;12.616;2022-11-22T02:30:18;30.83;;;10.52;;
7545;SDS011;3814;51.454;12.616;2022-11-22T02:33:06;26.10;;;9.45;;
7545;SDS011;3814;51.454;12.616;2022-11-22T02:35:32;30.95;;;10.52;;
7545;SDS011;3814;51.454;12.616;2022-11-22T02:38:08;30.95;;;9.93;;
7545;SDS011;3814;51.454;12.616;2022-11-22T02:40:41;30.52;;;11.02;;
7545;SDS011;3814;51.454;12.616;2022-11-22T02:43:14;29.88;;;9.90;;
7545;SDS011;3814;51.454;12.616;2022-11-22T02:45:41;26.35;;;10.32;;
7545;SDS011;3814;51.454;12.616;2022-11-22T02:48:08;29.75;;;9.90;;
7545;SDS011;3814;51.454;12.616;2022-11-22T02:50:35;28.70;;;10.40;;
7545;SDS011;3814;51.454;12.616;2022-11-22T02:53:01;28.83;;;10.02;;
7545;SDS011;3814;51.454;12.616;2022-11-22T02:55:28;30.52;;;10.52;;
7545;SDS011;3814;51.454;12.616;2022-11-22T02:57:53;30.55;;;10.95;;
7545;SDS011;3814;51.454;12.616;2022-11-22T03:00:19;27.90;;;9.30;;
7545;SDS011;3814;51.454;12.616;2022-11-22T03:02:44;26.88;;;10.63;;
7545;SDS011;3814;51.454;12.616;2022-11-22T03:05:09;29.98;;;9.85;;
7545;SDS011;3814;51.454;12.616;2022-11-22T03:07:35;33.00;;;10.98;;
7545;SDS011;3814;51.454;12.616;2022-11-22T03:10:00;29.95;;;10.00;;
7545;SDS011;3814;51.454;12.616;2022-11-22T03:12:25;26.75;;;9.60;;
7545;SDS011;3814;51.454;12.616;2022-11-22T03:14:51;31.02;;;9.73;;
7545;SDS011;3814;51.454;12.616;2022-11-22T03:17:16;31.02;;;10.48;;
7545;SDS011;3814;51.454;12.616;2022-11-22T03:19:41;29.42;;;10.40;;
7545;SDS011;3814;51.454;12.616;2022-11-22T03:22:07;29.00;;;9.88;;
7545;SDS011;3814;51.454;12.616;2022-11-22T03:24:32;31.85;;;10.32;;
7545;SDS011;3814;51.454;12.616;2022-11-22T03:26:57;29.48;;;10.20;;
7545;SDS011;3814;51.454;12.616;2022-11-22T03:29:23;35.05;;;12.23;;
7545;SDS011;3814;51.454;12.616;2022-11-22T03:31:48;32.30;;;11.68;;
7545;SDS011;3814;51.454;12.616;2022-11-22T03:34:14;33.78;;;11.65;;
7545;SDS011;3814;51.454;12.616;2022-11-22T03:36:41;33.35;;;11.05;;
7545;SDS011;3814;51.454;12.616;2022-11-22T03:39:06;33.17;;;10.85;;
7545;SDS011;3814;51.454;12.616;2022-11-22T03:41:32;33.20;;;11.57;;
7545;SDS011;3814;51.454;12.616;2022-11-22T03:43:57;35.63;;;11.27;;
7545;SDS011;3814;51.454;12.616;2022-11-22T03:46:22;30.85;;;11.70;;
7545;SDS011;3814;51.454;12.616;2022-11-22T03:48:48;33.05;;;11.80;;
7545;SDS011;3814;51.454;12.616;2022-11-22T03:51:13;29.75;;;11.55;;
7545;SDS011;3814;51.454;12.616;2022-11-22T03:53:38;32.38;;;11.25;;
7545;SDS011;3814;51.454;12.616;2022-11-22T03:56:04;36.95;;;12.52;;
7545;SDS011;3814;51.454;12.616;2022-11-22T03:58:30;34.65;;;11.65;;
7545;SDS011;3814;51.454;12.616;2022-11-22T04:00:55;27.30;;;11.10;;
7545;SDS011;3814;51.454;12.616;2022-11-22T04:03:21;32.88;;;11.80;;
7545;SDS011;3814;51.454;12.616;2022-11-22T04:05:46;33.35;;;11.05;;
7545;SDS011;3814;51.454;12.616;2022-11-22T04:08:12;30.73;;;11.02;;
7545;SDS011;3814;51.454;12.616;2022-11-22T04:10:38;32.20;;;11.18;;
7545;SDS011;3814;51.454;12.616;2022-11-22T04:13:03;32.15;;;10.63;;
7545;SDS011;3814;51.454;12.616;2022-11-22T04:15:28;28.88;;;10.32;;
7545;SDS011;3814;51.454;12.616;2022-11-22T04:17:54;30.73;;;10.77;;
7545;SDS011;3814;51.454;12.616;2022-11-22T04:20:20;30.02;;;9.85;;
7545;SDS011;3814;51.454;12.616;2022-11-22T04:23:10;28.33;;;10.20;;
7545;SDS011;3814;51.454;12.616;2022-11-22T04:25:36;32.38;;;10.88;;
7545;SDS011;3814;51.454;12.616;2022-11-22T04:28:03;30.92;;;9.95;;
7545;SDS011;3814;51.454;12.616;2022-11-22T04:30:30;31.77;;;10.70;;
7545;SDS011;3814;51.454;12.616;2022-11-22T04:33:14;31.77;;;10.32;;
7545;SDS011;3814;51.454;12.616;2022-11-22T04:35:40;32.42;;;11.00;;
7545;SDS011;3814;51.454;12.616;2022-11-22T04:38:06;29.77;;;10.02;;
7545;SDS011;3814;51.454;12.616;2022-11-22T04:40:31;25.10;;;10.63;;
7545;SDS011;3814;51.454;12.616;2022-11-22T04:42:57;29.50;;;10.18;;
7545;SDS011;3814;51.454;12.616;2022-11-22T04:45:42;30.58;;;10.70;;
7545;SDS011;3814;51.454;12.616;2022-11-22T04:48:07;32.33;;;9.98;;
7545;SDS011;3814;51.454;12.616;2022-11-22T04:50:32;29.92;;;11.00;;
7545;SDS011;3814;51.454;12.616;2022-11-22T04:53:17;30.33;;;10.63;;
7545;SDS011;3814;51.454;12.616;2022-11-22T04:55:43;32.45;;;11.32;;
7545;SDS011;3814;51.454;12.616;2022-11-22T04:58:10;29.88;;;10.75;;
7545;SDS011;3814;51.454;12.616;2022-11-22T05:00:35;32.88;;;11.35;;
7545;SDS011;3814;51.454;12.616;2022-11-22T05:03:01;29.65;;;10.23;;
7545;SDS011;3814;51.454;12.616;2022-11-22T05:05:27;31.95;;;11.77;;
7545;SDS011;3814;51.454;12.616;2022-11-22T05:07:52;30.13;;;10.10;;
7545;SDS011;3814;51.454;12.616;2022-11-22T05:10:18;35.20;;;11.35;;
7545;SDS011;3814;51.454;12.616;2022-11-22T05:12:43;32.00;;;10.45;;
7545;SDS011;3814;51.454;12.616;2022-11-22T05:15:09;32.97;;;12.05;;
7545;SDS011;3814;51.454;12.616;2022-11-22T05:17:35;37.45;;;11.73;;
7545;SDS011;3814;51.454;12.616;2022-11-22T05:20:02;31.88;;;11.15;;
7545;SDS011;3814;51.454;12.616;2022-11-22T05:22:27;26.58;;;10.55;;
7545;SDS011;3814;51.454;12.616;2022-11-22T05:25:11;31.25;;;10.93;;
7545;SDS011;3814;51.454;12.616;2022-11-22T05:27:37;30.10;;;10.32;;
7545;SDS011;3814;51.454;12.616;2022-11-22T05:30:02;32.05;;;10.63;;
7545;SDS011;3814;51.454;12.616;2022-11-22T05:32:32;33.28;;;10.88;;
7545;SDS011;3814;51.454;12.616;2022-11-22T05:34:57;29.10;;;10.55;;
7545;SDS011;3814;51.454;12.616;2022-11-22T05:37:23;29.35;;;11.20;;
7545;SDS011;3814;51.454;12.616;2022-11-22T05:39:48;29.00;;;11.25;;
7545;SDS011;3814;51.454;12.616;2022-11-22T05:42:14;31.92;;;11.40;;
7545;SDS011;3814;51.454;12.616;2022-11-22T05:44:39;30.33;;;10.88;;
7545;SDS011;3814;51.454;12.616;2022-11-22T05:47:04;29.40;;;10.70;;
7545;SDS011;3814;51.454;12.616;2022-11-22T05:49:30;28.02;;;11.00;;
7545;SDS011;3814;51.454;12.616;2022-11-22T05:51:55;31.45;;;10.85;;
7545;SDS011;3814;51.454;12.616;2022-11-22T05:54:20;33.90;;;11.02;;
7545;SDS011;3814;51.454;12.616;2022-11-22T05:56:46;29.33;;;10.63;;
7545;SDS011;3814;51.454;12.616;2022-11-22T05:59:12;33.90;;;11.57;;
7545;SDS011;3814;51.454;12.616;2022-11-22T06:01:38;29.60;;;10.15;;
7545;SDS011;3814;51.454;12.616;2022-11-22T06:04:03;28.52;;;10.35;;
7545;SDS011;3814;51.454;12.616;2022-11-22T06:06:29;30.25;;;11.25;;
7545;SDS011;3814;51.454;12.616;2022-11-22T06:08:54;29.13;;;11.15;;
7545;SDS011;3814;51.454;12.616;2022-11-22T06:11:20;31.48;;;10.60;;
7545;SDS011;3814;51.454;12.616;2022-11-22T06:13:48;32.30;;;10.73;;
7545;SDS011;3814;51.454;12.616;2022-11-22T06:16:14;32.08;;;12.07;;
7545;SDS011;3814;51.454;12.616;2022-11-22T06:18:40;35.08;;;12.20;;
7545;SDS011;3814;51.454;12.616;2022-11-22T06:21:07;32.28;;;10.15;;
7545;SDS011;3814;51.454;12.616;2022-11-22T06:23:35;30.17;;;11.20;;
7545;SDS011;3814;51.454;12.616;2022-11-22T06:26:04;32.90;;;11.88;;
7545;SDS011;3814;51.454;12.616;2022-11-22T06:28:39;30.70;;;11.23;;
7545;SDS011;3814;51.454;12.616;2022-11-22T06:31:06;34.05;;;12.13;;
7545;SDS011;3814;51.454;12.616;2022-11-22T06:33:33;32.13;;;11.85;;
7545;SDS011;3814;51.454;12.616;2022-11-22T06:36:12;33.22;;;11.20;;
7545;SDS011;3814;51.454;12.616;2022-11-22T06:38:39;32.55;;;11.68;;
7545;SDS011;3814;51.454;12.616;2022-11-22T06:41:06;34.35;;;12.13;;
7545;SDS011;3814;51.454;12.616;2022-11-22T06:43:33;30.75;;;10.10;;
7545;SDS011;3814;51.454;12.616;2022-11-22T06:46:00;31.83;;;10.50;;
7545;SDS011;3814;51.454;12.616;2022-11-22T06:48:29;29.85;;;10.65;;
7545;SDS011;3814;51.454;12.616;2022-11-22T06:50:59;30.70;;;11.60;;
7545;SDS011;3814;51.454;12.616;2022-11-22T06:53:29;32.08;;;10.75;;
7545;SDS011;3814;51.454;12.616;2022-11-22T06:56:02;32.83;;;11.18;;
7545;SDS011;3814;51.454;12.616;2022-11-22T06:58:51;30.52;;;11.27;;
7545;SDS011;3814;51.454;12.616;2022-11-22T07:03:44;28.23;;;10.98;;
7545;SDS011;3814;51.454;12.616;2022-11-22T07:06:10;33.10;;;12.07;;
7545;SDS011;3814;51.454;12.616;2022-11-22T07:08:37;34.22;;;11.15;;
7545;SDS011;3814;51.454;12.616;2022-11-22T07:11:04;31.15;;;11.23;;
7545;SDS011;3814;51.454;12.616;2022-11-22T07:16:30;35.45;;;12.00;;
7545;SDS011;3814;51.454;12.616;2022-11-22T07:18:57;30.45;;;11.65;;
7545;SDS011;3814;51.454;12.616;2022-11-22T07:21:23;32.58;;;11.77;;
7545;SDS011;3814;51.454;12.616;2022-11-22T07:23:50;31.08;;;10.27;;
7545;SDS011;3814;51.454;12.616;2022-11-22T07:26:17;32.55;;;11.30;;
7545;SDS011;3814;51.454;12.616;2022-11-22T07:28:43;30.67;;;11.88;;
7545;SDS011;3814;51.454;12.616;2022-11-22T08:20:17;41.05;;;14.70;;
7545;SDS011;3814;51.454;12.616;2022-11-22T08:22:42;39.22;;;14.95;;
7545;SDS011;3814;51.454;12.616;2022-11-22T08:25:08;38.65;;;15.77;;
7545;SDS011;3814;51.454;12.616;2022-11-22T08:27:37;31.25;;;12.27;;
7545;SDS011;3814;51.454;12.616;2022-11-22T08:30:03;27.63;;;12.45;;
7545;SDS011;3814;51.454;12.616;2022-11-22T08:32:29;30.33;;;11.77;;
7545;SDS011;3814;51.454;12.616;2022-11-22T08:34:54;31.50;;;11.82;;
7545;SDS011;3814;51.454;12.616;2022-11-22T08:37:20;27.80;;;11.30;;
7545;SDS011;3814;51.454;12.616;2022-11-22T08:39:45;28.52;;;10.90;;
7545;SDS011;3814;51.454;12.616;2022-11-22T08:42:10;28.67;;;10.73;;
7545;SDS011;3814;51.454;12.616;2022-11-22T08:44:36;27.30;;;11.23;;
7545;SDS011;3814;51.454;12.616;2022-11-22T08:47:01;25.65;;;10.68;;
7545;SDS011;3814;51.454;12.616;2022-11-22T08:49:30;28.27;;;10.75;;
7545;SDS011;3814;51.454;12.616;2022-11-22T08:51:58;25.30;;;10.18;;
7545;SDS011;3814;51.454;12.616;2022-11-22T08:54:23;27.08;;;12.07;;
7545;SDS011;3814;51.454;12.616;2022-11-22T08:56:49;28.35;;;10.73;;
7545;SDS011;3814;51.454;12.616;2022-11-22T08:59:14;29.05;;;10.95;;
7545;SDS011;3814;51.454;12.616;2022-11-22T09:01:40;26.98;;;11.27;;
7545;SDS011;3814;51.454;12.616;2022-11-22T09:04:06;28.35;;;11.65;;
7545;SDS011;3814;51.454;12.616;2022-11-22T09:06:34;28.08;;;12.02;;
7545;SDS011;3814;51.454;12.616;2022-11-22T09:09:03;30.05;;;11.40;;
7545;SDS011;3814;51.454;12.616;2022-11-22T09:11:32;30.42;;;12.32;;
7545;SDS011;3814;51.454;12.616;2022-11-22T09:14:00;28.00;;;10.98;;
7545;SDS011;3814;51.454;12.616;2022-11-22T09:16:26;29.85;;;11.40;;
7545;SDS011;3814;51.454;12.616;2022-11-22T09:18:54;30.50;;;11.50;;
7545;SDS011;3814;51.454;12.616;2022-11-22T09:21:21;29.15;;;11.57;;
7545;SDS011;3814;51.454;12.616;2022-11-22T09:23:50;26.98;;;11.40;;
7545;SDS011;3814;51.454;12.616;2022-11-22T09:26:22;28.50;;;12.20;;
7545;SDS011;3814;51.454;12.616;2022-11-22T09:28:49;30.67;;;11.27;;
7545;SDS011;3814;51.454;12.616;2022-11-22T09:31:17;31.13;;;12.25;;
7545;SDS011;3814;51.454;12.616;2022-11-22T09:33:44;28.65;;;11.20;;
7545;SDS011;3814;51.454;12.616;2022-11-22T09:36:18;29.73;;;12.25;;
7545;SDS011;3814;51.454;12.616;2022-11-22T09:38:49;29.55;;;11.65;;
7545;SDS011;3814;51.454;12.616;2022-11-22T09:46:43;26.70;;;11.30;;
7545;SDS011;3814;51.454;12.616;2022-11-22T09:51:52;31.23;;;12.40;;
7545;SDS011;3814;51.454;12.616;2022-11-22T09:54:33;32.40;;;12.10;;
7545;SDS011;3814;51.454;12.616;2022-11-22T09:57:04;35.47;;;12.88;;
7545;SDS011;3814;51.454;12.616;2022-11-22T09:59:34;34.50;;;12.93;;
7545;SDS011;3814;51.454;12.616;2022-11-22T10:02:03;33.15;;;13.13;;
7545;SDS011;3814;51.454;12.616;2022-11-22T10:04:33;31.60;;;13.13;;
7545;SDS011;3814;51.454;12.616;2022-11-22T10:07:02;33.75;;;13.40;;
7545;SDS011;3814;51.454;12.616;2022-11-22T10:09:37;34.28;;;13.07;;
7545;SDS011;3814;51.454;12.616;2022-11-22T10:17:57;27.85;;;10.80;;
7545;SDS011;3814;51.454;12.616;2022-11-22T10:20:26;30.75;;;11.45;;
7545;SDS011;3814;51.454;12.616;2022-11-22T10:22:52;30.42;;;11.48;;
7545;SDS011;3814;51.454;12.616;2022-11-22T10:25:19;30.25;;;12.30;;
7545;SDS011;3814;51.454;12.616;2022-11-22T10:27:52;29.25;;;11.38;;
7545;SDS011;3814;51.454;12.616;2022-11-22T10:30:21;31.13;;;12.05;;
7545;SDS011;3814;51.454;12.616;2022-11-22T10:32:54;31.15;;;11.93;;
7545;SDS011;3814;51.454;12.616;2022-11-22T10:41:25;30.63;;;12.25;;
7545;SDS011;3814;51.454;12.616;2022-11-22T10:44:17;31.25;;;12.27;;
7545;SDS011;3814;51.454;12.616;2022-11-22T10:49:56;30.58;;;12.50;;
7545;SDS011;3814;51.454;12.616;2022-11-22T11:00:46;32.20;;;12.70;;
7545;SDS011;3814;51.454;12.616;2022-11-22T11:03:29;30.92;;;12.77;;
7545;SDS011;3814;51.454;12.616;2022-11-22T11:06:03;36.55;;;13.02;;
7545;SDS011;3814;51.454;12.616;2022-11-22T11:08:47;28.80;;;11.90;;
7545;SDS011;3814;51.454;12.616;2022-11-22T11:11:16;30.35;;;13.02;;
7545;SDS011;3814;51.454;12.616;2022-11-22T11:13:46;32.97;;;12.48;;
7545;SDS011;3814;51.454;12.616;2022-11-22T11:16:23;35.47;;;13.88;;
7545;SDS011;3814;51.454;12.616;2022-11-22T11:18:54;34.70;;;13.43;;
7545;SDS011;3814;51.454;12.616;2022-11-22T11:21:31;31.13;;;11.65;;
7545;SDS011;3814;51.454;12.616;2022-11-22T11:23:57;32.65;;;12.75;;
7545;SDS011;3814;51.454;12.616;2022-11-22T11:26:26;32.85;;;12.05;;
7545;SDS011;3814;51.454;12.616;2022-11-22T11:31:41;32.33;;;13.00;;
7545;SDS011;3814;51.454;12.616;2022-11-22T11:34:28;31.38;;;11.55;;
7545;SDS011;3814;51.454;12.616;2022-11-22T11:36:55;36.40;;;12.57;;
7545;SDS011;3814;51.454;12.616;2022-11-22T11:39:22;31.40;;;13.00;;
7545;SDS011;3814;51.454;12.616;2022-11-22T11:41:51;30.23;;;12.20;;
7545;SDS011;3814;51.454;12.616;2022-11-22T11:44:30;29.30;;;12.93;;
7545;SDS011;3814;51.454;12.616;2022-11-22T11:47:04;32.60;;;12.70;;
7545;SDS011;3814;51.454;12.616;2022-11-22T11:49:30;34.70;;;13.25;;
7545;SDS011;3814;51.454;12.616;2022-11-22T11:52:01;31.17;;;11.73;;
7545;SDS011;3814;51.454;12.616;2022-11-22T11:54:42;29.70;;;12.68;;
7545;SDS011;3814;51.454;12.616;2022-11-22T12:00:00;29.85;;;12.25;;
7545;SDS011;3814;51.454;12.616;2022-11-22T12:02:34;34.38;;;13.38;;
7545;SDS011;3814;51.454;12.616;2022-11-22T12:05:23;32.67;;;12.43;;
7545;SDS011;3814;51.454;12.616;2022-11-22T12:07:50;30.30;;;12.32;;
7545;SDS011;3814;51.454;12.616;2022-11-22T12:18:38;32.20;;;12.13;;
7545;SDS011;3814;51.454;12.616;2022-11-22T12:23:45;30.70;;;12.18;;
7545;SDS011;3814;51.454;12.616;2022-11-22T12:26:13;31.75;;;13.10;;
7545;SDS011;3814;51.454;12.616;2022-11-22T12:28:39;30.60;;;12.82;;
7545;SDS011;3814;51.454;12.616;2022-11-22T12:31:06;29.83;;;11.77;;
7545;SDS011;3814;51.454;12.616;2022-11-22T12:33:40;33.80;;;11.95;;
7545;SDS011;3814;51.454;12.616;2022-11-22T12:36:15;28.17;;;11.32;;
7545;SDS011;3814;51.454;12.616;2022-11-22T12:38:44;27.88;;;11.98;;
7545;SDS011;3814;51.454;12.616;2022-11-22T12:41:12;28.58;;;12.18;;
7545;SDS011;3814;51.454;12.616;2022-11-22T12:43:44;26.63;;;11.27;;
7545;SDS011;3814;51.454;12.616;2022-11-22T12:46:24;31.67;;;12.73;;
7545;SDS011;3814;51.454;12.616;2022-11-22T12:51:58;27.88;;;10.85;;
7545;SDS011;3814;51.454;12.616;2022-11-22T12:54:31;27.58;;;11.50;;
7545;SDS011;3814;51.454;12.616;2022-11-22T12:57:00;28.67;;;12.07;;
7545;SDS011;3814;51.454;12.616;2022-11-22T13:02:30;29.77;;;11.98;;
7545;SDS011;3814;51.454;12.616;2022-11-22T13:12:58;29.15;;;11.95;;
7545;SDS011;3814;51.454;12.616;2022-11-22T13:15:28;28.42;;;11.77;;
7545;SDS011;3814;51.454;12.616;2022-11-22T13:17:55;27.88;;;12.05;;
7545;SDS011;3814;51.454;12.616;2022-11-22T13:20:22;32.42;;;13.40;;
7545;SDS011;3814;51.454;12.616;2022-11-22T13:28:14;29.77;;;12.00;;
7545;SDS011;3814;51.454;12.616;2022-11-22T13:33:31;30.40;;;12.00;;
7545;SDS011;3814;51.454;12.616;2022-11-22T13:38:54;27.00;;;10.95;;
7545;SDS011;3814;51.454;12.616;2022-11-22T13:41:29;28.92;;;11.98;;
7545;SDS011;3814;51.454;12.616;2022-11-22T13:44:23;30.60;;;11.93;;
7545;SDS011;3814;51.454;12.616;2022-11-22T13:49:33;28.80;;;11.70;;
7545;SDS011;3814;51.454;12.616;2022-11-22T14:02:44;29.08;;;11.13;;
7545;SDS011;3814;51.454;12.616;2022-11-22T14:07:55;25.63;;;11.63;;
7545;SDS011;3814;51.454;12.616;2022-11-22T14:10:34;28.02;;;11.75;;
7545;SDS011;3814;51.454;12.616;2022-11-22T14:16:03;28.02;;;11.75;;
7545;SDS011;3814;51.454;12.616;2022-11-22T14:25:16;30.90;;;12.10;;
7545;SDS011;3814;51.454;12.616;2022-11-22T14:27:35;29.05;;;12.52;;
7545;SDS011;3814;51.454;12.616;2022-11-22T14:30:10;32.83;;;12.70;;
7545;SDS011;3814;51.454;12.616;2022-11-22T14:40:51;31.27;;;12.35;;
7545;SDS011;3814;51.454;12.616;2022-11-22T14:43:21;28.98;;;11.52;;
7545;SDS011;3814;51.454;12.616;2022-11-22T14:45:51;29.13;;;12.90;;
7545;SDS011;3814;51.454;12.616;2022-11-22T14:48:21;28.30;;;12.15;;
7545;SDS011;3814;51.454;12.616;2022-11-22T14:51:04;31.20;;;12.50;;
7545;SDS011;3814;51.454;12.616;2022-11-22T14:53:32;33.75;;;12.32;;
7545;SDS011;3814;51.454;12.616;2022-11-22T14:56:06;30.63;;;12.45;;
7545;SDS011;3814;51.454;12.616;2022-11-22T14:58:38;28.98;;;11.98;;
7545;SDS011;3814;51.454;12.616;2022-11-22T15:03:56;28.98;;;11.95;;
7545;SDS011;3814;51.454;12.616;2022-11-22T15:06:28;31.52;;;12.25;;
7545;SDS011;3814;51.454;12.616;2022-11-22T15:17:14;101.35;;;35.83;;
7545;SDS011;3814;51.454;12.616;2022-11-22T15:19:41;112.70;;;41.15;;
7545;SDS011;3814;51.454;12.616;2022-11-22T15:22:11;79.70;;;30.05;;
7545;SDS011;3814;51.454;12.616;2022-11-22T15:24:45;68.18;;;27.17;;
7545;SDS011;3814;51.454;12.616;2022-11-22T15:27:19;44.80;;;18.73;;
7545;SDS011;3814;51.454;12.616;2022-11-22T15:30:12;31.77;;;13.32;;
7545;SDS011;3814;51.454;12.616;2022-11-22T15:32:39;25.70;;;11.50;;
7545;SDS011;3814;51.454;12.616;2022-11-22T15:35:10;29.05;;;12.15;;
7545;SDS011;3814;51.454;12.616;2022-11-22T15:40:38;27.20;;;11.48;;
7545;SDS011;3814;51.454;12.616;2022-11-22T15:43:04;29.17;;;11.63;;
7545;SDS011;3814;51.454;12.616;2022-11-22T15:45:35;30.25;;;12.70;;
7545;SDS011;3814;51.454;12.616;2022-11-22T15:48:05;28.88;;;11.80;;
7545;SDS011;3814;51.454;12.616;2022-11-22T15:50:34;27.15;;;11.25;;
7545;SDS011;3814;51.454;12.616;2022-11-22T15:53:17;26.58;;;11.15;;
7545;SDS011;3814;51.454;12.616;2022-11-22T15:55:55;27.95;;;10.50;;
7545;SDS011;3814;51.454;12.616;2022-11-22T15:58:24;25.83;;;10.48;;
7545;SDS011;3814;51.454;12.616;2022-11-22T16:00:51;24.33;;;10.50;;
7545;SDS011;3814;51.454;12.616;2022-11-22T16:03:19;30.55;;;12.75;;
7545;SDS011;3814;51.454;12.616;2022-11-22T16:05:46;29.98;;;12.25;;
7545;SDS011;3814;51.454;12.616;2022-11-22T16:08:12;29.33;;;11.77;;
7545;SDS011;3814;51.454;12.616;2022-11-22T16:10:39;27.05;;;10.77;;
7545;SDS011;3814;51.454;12.616;2022-11-22T16:13:21;27.08;;;11.15;;
7545;SDS011;3814;51.454;12.616;2022-11-22T16:18:27;30.20;;;11.80;;
7545;SDS011;3814;51.454;12.616;2022-11-22T16:21:03;29.13;;;11.35;;
7545;SDS011;3814;51.454;12.616;2022-11-22T16:23:30;24.42;;;10.85;;
7545;SDS011;3814;51.454;12.616;2022-11-22T16:28:41;26.23;;;10.68;;
7545;SDS011;3814;51.454;12.616;2022-11-22T16:31:28;27.98;;;11.63;;
7545;SDS011;3814;51.454;12.616;2022-11-22T16:33:55;25.63;;;11.63;;
7545;SDS011;3814;51.454;12.616;2022-11-22T16:36:22;40.72;;;15.75;;
7545;SDS011;3814;51.454;12.616;2022-11-22T16:38:49;40.90;;;16.45;;
7545;SDS011;3814;51.454;12.616;2022-11-22T16:41:24;33.85;;;13.13;;
7545;SDS011;3814;51.454;12.616;2022-11-22T16:43:55;29.75;;;12.88;;
7545;SDS011;3814;51.454;12.616;2022-11-22T16:46:23;32.13;;;12.02;;
7545;SDS011;3814;51.454;12.616;2022-11-22T16:48:48;27.30;;;11.95;;
7545;SDS011;3814;51.454;12.616;2022-11-22T16:51:27;27.77;;;11.35;;
7545;SDS011;3814;51.454;12.616;2022-11-22T16:53:53;26.40;;;10.82;;
7545;SDS011;3814;51.454;12.616;2022-11-22T16:56:25;28.63;;;11.10;;
7545;SDS011;3814;51.454;12.616;2022-11-22T16:58:53;23.63;;;10.18;;
7545;SDS011;3814;51.454;12.616;2022-11-22T17:01:21;24.23;;;10.30;;
7545;SDS011;3814;51.454;12.616;2022-11-22T17:03:48;23.05;;;10.38;;
7545;SDS011;3814;51.454;12.616;2022-11-22T17:08:40;22.50;;;9.88;;
7545;SDS011;3814;51.454;12.616;2022-11-22T17:11:07;21.77;;;10.43;;
7545;SDS011;3814;51.454;12.616;2022-11-22T17:13:33;22.23;;;10.05;;
7545;SDS011;3814;51.454;12.616;2022-11-22T17:15:59;26.73;;;11.88;;
7545;SDS011;3814;51.454;12.616;2022-11-22T17:18:24;28.38;;;12.07;;
7545;SDS011;3814;51.454;12.616;2022-11-22T17:20:49;26.42;;;11.63;;
7545;SDS011;3814;51.454;12.616;2022-11-22T17:23:25;24.60;;;10.70;;
7545;SDS011;3814;51.454;12.616;2022-11-22T17:25:53;24.98;;;10.73;;
7545;SDS011;3814;51.454;12.616;2022-11-22T17:28:18;22.40;;;10.07;;
7545;SDS011;3814;51.454;12.616;2022-11-22T17:30:43;20.70;;;9.68;;
7545;SDS011;3814;51.454;12.616;2022-11-22T17:33:10;24.10;;;10.25;;
7545;SDS011;3814;51.454;12.616;2022-11-22T17:35:35;19.73;;;9.38;;
7545;SDS011;3814;51.454;12.616;2022-11-22T17:38:01;22.63;;;9.45;;
7545;SDS011;3814;51.454;12.616;2022-11-22T17:40:26;18.90;;;8.15;;
7545;SDS011;3814;51.454;12.616;2022-11-22T17:42:52;16.20;;;7.28;;
7545;SDS011;3814;51.454;12.616;2022-11-22T17:45:17;18.98;;;7.80;;
7545;SDS011;3814;51.454;12.616;2022-11-22T17:47:43;16.13;;;7.63;;
7545;SDS011;3814;51.454;12.616;2022-11-22T17:50:08;18.33;;;7.90;;
7545;SDS011;3814;51.454;12.616;2022-11-22T17:52:34;15.75;;;6.45;;
7545;SDS011;3814;51.454;12.616;2022-11-22T17:54:59;13.43;;;6.35;;
7545;SDS011;3814;51.454;12.616;2022-11-22T17:57:25;16.45;;;6.85;;